Time;durP1;ratioP1;P1;durP2;ratioP2;P2;SDS_P1;SDS_P2;PMS_P1;PMS_P2;Temp;Humidity;BMP_temperature;BMP_pressure;BME280_temperature;BME280_humidity;BME280_pressure;Samples;Min_cycle;Max_cycle;Signal;HPM_P1;HPM_P2
2023/11/23 00:00:12;;;;;;;0.40;0.00;;;3.50;86.80;;;;;;25511495;23;20076;-60
2023/11/23 00:10:14;;;;;;;0.00;0.00;;;3.20;87.30;;;;;;25471838;23;20040;-60
2023/11/23 00:20:16;;;;;;;0.03;0.00;;;3.00;86.80;;;;;;25478307;23;20006;-60
2023/11/23 00:30:18;;;;;;;0.05;0.00;;;2.50;90.30;;;;;;25477960;23;20437;-60
2023/11/23 00:40:19;;;;;;;0.17;0.00;;;2.80;90.00;;;;;;25477441;23;20036;-60
2023/11/23 00:50:21;;;;;;;0.10;0.00;;;2.10;91.70;;;;;;25476870;23;20018;-60
2023/11/23 01:00:23;;;;;;;0.00;0.00;;;1.70;91.40;;;;;;25476023;23;20046;-60
2023/11/23 01:10:24;;;;;;;0.28;0.00;;;2.30;90.40;;;;;;25476203;23;20060;-60
2023/11/23 01:20:26;;;;;;;0.28;0.00;;;2.40;90.10;;;;;;25474264;23;20033;-60
2023/11/23 01:30:28;;;;;;;0.25;0.00;;;2.50;90.30;;;;;;25475658;23;20009;-59
2023/11/23 01:40:30;;;;;;;0.15;0.00;;;2.40;90.50;;;;;;25475040;23;20017;-60
2023/11/23 01:50:34;;;;;;;0.73;0.00;;;2.30;90.60;;;;;;25473280;23;20156;-60
2023/11/23 02:00:39;;;;;;;0.10;0.00;;;2.40;90.40;;;;;;25474390;23;20005;-60
2023/11/23 02:10:43;;;;;;;0.25;0.00;;;2.30;90.40;;;;;;25513301;23;20005;-60
2023/11/23 02:20:46;;;;;;;0.10;0.00;;;2.50;88.50;;;;;;25473463;23;20001;-60
2023/11/23 02:30:48;;;;;;;0.00;0.00;;;2.80;87.00;;;;;;25471728;23;20013;-60
2023/11/23 02:40:50;;;;;;;0.13;0.00;;;2.60;87.10;;;;;;25472649;23;20125;-60
2023/11/23 02:50:52;;;;;;;0.00;0.00;;;2.20;89.40;;;;;;25470845;23;20013;-60
2023/11/23 03:00:55;;;;;;;0.28;0.00;;;2.20;88.80;;;;;;25472521;23;20009;-54
2023/11/23 03:10:57;;;;;;;0.20;0.00;;;2.20;88.90;;;;;;25471761;23;20005;-60
2023/11/23 03:20:59;;;;;;;0.00;0.00;;;2.00;89.30;;;;;;25473272;23;20060;-59
2023/11/23 03:31:01;;;;;;;0.28;0.00;;;1.60;90.10;;;;;;25470390;23;20010;-58
2023/11/23 03:41:04;;;;;;;0.00;0.00;;;1.20;90.70;;;;;;25471339;23;20064;-60
2023/11/23 03:51:06;;;;;;;0.20;0.08;;;1.30;90.70;;;;;;25476943;23;20068;-60
2023/11/23 04:01:09;;;;;;;0.00;0.00;;;1.40;90.70;;;;;;25478976;23;20002;-60
2023/11/23 04:11:11;;;;;;;0.30;0.00;;;1.10;91.10;;;;;;25478756;23;20005;-60
2023/11/23 04:21:13;;;;;;;0.13;0.10;;;0.70;91.50;;;;;;25478356;23;20002;-60
2023/11/23 04:31:15;;;;;;;0.00;0.00;;;1.60;90.40;;;;;;25476304;23;20033;-50
2023/11/23 04:41:16;;;;;;;0.03;0.00;;;1.30;91.10;;;;;;25477767;23;20009;-59
2023/11/23 04:51:18;;;;;;;0.15;0.00;;;0.80;92.10;;;;;;25476995;23;20016;-60
2023/11/23 05:01:22;;;;;;;0.00;0.00;;;0.40;92.90;;;;;;25476092;23;20036;-59
2023/11/23 05:11:24;;;;;;;0.20;0.00;;;0.20;93.70;;;;;;25476060;23;20013;-59
2023/11/23 05:21:26;;;;;;;0.03;0.00;;;-0.20;93.40;;;;;;25476111;23;20001;-47
2023/11/23 05:31:28;;;;;;;0.10;0.00;;;-0.40;94.30;;;;;;25475174;23;20065;-60
2023/11/23 05:41:29;;;;;;;0.17;0.00;;;-0.70;95.70;;;;;;25475408;23;20013;-59
2023/11/23 05:51:31;;;;;;;0.22;0.00;;;-0.70;94.00;;;;;;25472774;23;20014;-59
2023/11/23 06:01:33;;;;;;;0.00;0.00;;;-0.40;93.50;;;;;;25474613;23;20009;-48
2023/11/23 06:11:35;;;;;;;0.10;0.05;;;0.00;92.40;;;;;;25472312;23;20064;-58
2023/11/23 06:21:37;;;;;;;0.00;0.00;;;-0.10;92.30;;;;;;25473593;23;20010;-59
2023/11/23 06:31:39;;;;;;;0.22;0.03;;;0.30;91.10;;;;;;25473014;23;20009;-57
2023/11/23 06:41:40;;;;;;;1.02;0.08;;;0.50;91.30;;;;;;25472910;23;20068;-59
2023/11/23 06:51:43;;;;;;;0.08;0.00;;;1.40;85.70;;;;;;25472566;23;20013;-59
2023/11/23 07:01:45;;;;;;;0.10;0.00;;;2.00;84.10;;;;;;25472322;23;20005;-51
2023/11/23 07:11:49;;;;;;;1.40;0.00;;;1.80;85.50;;;;;;25471820;23;20009;-60
2023/11/23 07:21:52;;;;;;;0.20;0.10;;;2.00;81.80;;;;;;25472591;23;20445;-58
2023/11/23 07:31:54;;;;;;;0.47;0.00;;;3.70;68.10;;;;;;25471146;23;20005;-58
2023/11/23 07:41:56;;;;;;;0.00;0.00;;;5.80;62.30;;;;;;25469722;23;20494;-58
2023/11/23 07:51:57;;;;;;;0.00;0.00;;;6.70;62.00;;;;;;25470853;23;20009;-58
2023/11/23 08:02:01;;;;;;;0.25;0.00;;;7.00;62.80;;;;;;25470820;23;20329;-58
2023/11/23 08:12:05;;;;;;;0.08;0.00;;;7.30;63.90;;;;;;25470686;23;20007;-56
2023/11/23 08:22:10;;;;;;;0.68;0.20;;;7.70;59.60;;;;;;25470361;23;20001;-58
2023/11/23 08:32:12;;;;;;;0.55;0.20;;;8.40;58.70;;;;;;25513073;23;20005;-58
2023/11/23 08:42:15;;;;;;;0.10;0.00;;;8.70;56.70;;;;;;25476333;23;20024;-58
2023/11/23 08:52:17;;;;;;;0.13;0.00;;;9.20;56.90;;;;;;25477183;23;20013;-50
2023/11/23 09:02:18;;;;;;;0.20;0.00;;;9.50;55.50;;;;;;25476804;23;20041;-57
2023/11/23 09:12:20;;;;;;;0.00;0.00;;;9.80;55.40;;;;;;25476722;23;20028;-57
2023/11/23 09:22:23;;;;;;;0.20;0.10;;;10.10;52.00;;;;;;25476057;23;20013;-58
2023/11/23 09:32:25;;;;;;;0.03;0.00;;;10.40;52.00;;;;;;25475092;23;20006;-54
2023/11/23 09:42:27;;;;;;;0.20;0.10;;;11.00;50.60;;;;;;25474815;23;20021;-58
2023/11/23 09:52:34;;;;;;;0.50;0.10;;;11.20;48.90;;;;;;25474928;23;20056;-58
2023/11/23 10:02:39;;;;;;;0.52;0.10;;;11.60;65.50;;;;;;25515327;23;20009;-54
2023/11/23 10:12:44;;;;;;;0.20;0.10;;;11.00;65.20;;;;;;25514956;23;20009;-53
2023/11/23 10:22:48;;;;;;;0.43;0.10;;;11.30;67.30;;;;;;25473550;23;20005;-48
2023/11/23 10:32:58;;;;;;;0.20;0.10;;;11.90;67.90;;;;;;25472443;23;20016;-53
2023/11/23 10:43:01;;;;;;;0.38;0.20;;;12.10;63.30;;;;;;25490371;23;20013;-58
2023/11/23 10:53:03;;;;;;;0.00;0.00;;;12.10;61.30;;;;;;25472603;23;20040;-52
2023/11/23 11:03:10;;;;;;;1.63;0.10;;;11.80;66.50;;;;;;25472163;23;20024;-54
2023/11/23 11:13:15;;;;;;;0.10;0.10;;;12.50;65.60;;;;;;25510413;23;20001;-53
2023/11/23 11:23:16;;;;;;;0.38;0.10;;;12.30;60.40;;;;;;25469918;23;20005;-51
2023/11/23 11:33:23;;;;;;;0.10;0.10;;;12.10;62.70;;;;;;25471221;23;20056;-57
2023/11/23 11:43:26;;;;;;;0.10;0.10;;;12.50;63.00;;;;;;25486645;23;20021;-54
2023/11/23 11:53:28;;;;;;;0.20;0.10;;;12.50;61.30;;;;;;25470968;23;20009;-47
2023/11/23 12:03:30;;;;;;;0.10;0.10;;;12.70;64.60;;;;;;25470689;23;20005;-55
2023/11/23 12:13:37;;;;;;;0.88;0.17;;;12.80;65.00;;;;;;25478285;23;20012;-52
2023/11/23 12:23:43;;;;;;;1.50;0.15;;;13.00;64.90;;;;;;25519362;23;20009;-56
2023/11/23 12:33:45;;;;;;;0.85;0.20;;;12.60;63.40;;;;;;25477861;23;20006;-58
2023/11/23 12:43:47;;;;;;;0.38;0.20;;;12.60;64.50;;;;;;25477554;23;20449;-59
2023/11/23 12:53:48;;;;;;;0.30;0.20;;;12.30;65.40;;;;;;25477283;23;20485;-52
2023/11/23 13:03:53;;;;;;;0.90;0.30;;;11.50;64.70;;;;;;25476943;23;20013;-52
2023/11/23 13:13:55;;;;;;;0.82;0.28;;;10.80;70.10;;;;;;25477542;23;20017;-50
2023/11/23 13:23:59;;;;;;;0.60;0.30;;;10.30;71.00;;;;;;25475476;23;20516;-49
2023/11/23 13:34:02;;;;;;;1.67;0.30;;;9.60;72.50;;;;;;25475514;23;20005;-52
2023/11/23 13:44:04;;;;;;;0.52;0.40;;;9.20;73.00;;;;;;25475109;23;20345;-50
2023/11/23 13:54:08;;;;;;;0.80;0.20;;;8.70;78.00;;;;;;25475000;23;20005;-53
2023/11/23 14:04:14;;;;;;;2.40;0.20;;;8.30;75.90;;;;;;25473989;23;20329;-56
2023/11/23 14:14:25;;;;;;;0.47;0.30;;;8.00;74.00;;;;;;25473791;23;20460;-48
2023/11/23 14:24:30;;;;;;;12.90;4.40;;;7.70;77.10;;;;;;25514552;23;20012;-49
2023/11/23 14:34:32;;;;;;;5.88;2.35;;;7.50;83.30;;;;;;25472929;23;20381;-58
2023/11/23 14:44:33;;;;;;;2.13;0.80;;;7.20;82.20;;;;;;25473040;23;20056;-51
2023/11/23 14:54:35;;;;;;;1.13;0.50;;;7.10;80.40;;;;;;25472774;23;20028;-51
2023/11/23 15:04:37;;;;;;;1.90;0.50;;;6.60;86.70;;;;;;25472389;23;20013;-58
2023/11/23 15:14:39;;;;;;;0.82;0.30;;;5.80;88.50;;;;;;25473618;23;20013;-59
2023/11/23 15:24:40;;;;;;;0.50;0.20;;;5.00;89.80;;;;;;25471722;23;20014;-52
2023/11/23 15:34:42;;;;;;;0.40;0.15;;;4.20;91.00;;;;;;25469598;23;20497;-47
2023/11/23 15:44:44;;;;;;;6.43;0.20;;;3.70;91.80;;;;;;25470844;23;20064;-58
2023/11/23 15:54:46;;;;;;;0.10;0.10;;;3.40;91.80;;;;;;25470926;23;20013;-55
2023/11/23 16:04:47;;;;;;;0.40;0.20;;;3.30;91.30;;;;;;25470811;23;20016;-51
2023/11/23 16:14:49;;;;;;;0.38;0.10;;;3.20;90.90;;;;;;25470437;23;20009;-59
2023/11/23 16:24:52;;;;;;;0.32;0.10;;;3.20;88.80;;;;;;25468656;23;20006;-49
2023/11/23 16:34:54;;;;;;;0.17;0.00;;;3.10;86.30;;;;;;25469688;23;20006;-58
2023/11/23 16:44:57;;;;;;;1.17;0.10;;;3.10;84.90;;;;;;25470151;23;20441;-60
2023/11/23 16:54:59;;;;;;;0.38;0.10;;;3.20;86.20;;;;;;25473256;23;20013;-59
2023/11/23 17:05:02;;;;;;;0.20;0.10;;;3.10;84.20;;;;;;25476865;23;20005;-59
2023/11/23 17:15:07;;;;;;;0.22;0.00;;;3.20;82.30;;;;;;25476352;23;20006;-54
2023/11/23 17:25:14;;;;;;;0.30;0.00;;;3.30;79.40;;;;;;25476214;23;20005;-60
2023/11/23 17:35:18;;;;;;;0.75;0.10;;;3.20;81.00;;;;;;25516487;23;20020;-59
2023/11/23 17:45:20;;;;;;;0.10;0.00;;;3.00;81.40;;;;;;25473746;23;20064;-54
2023/11/23 17:55:22;;;;;;;0.10;0.00;;;3.30;79.00;;;;;;25473460;23;20005;-59
2023/11/23 18:05:23;;;;;;;0.17;0.00;;;3.30;77.30;;;;;;25474337;23;20008;-49
2023/11/23 18:15:26;;;;;;;0.10;0.00;;;3.30;79.40;;;;;;25474433;23;20005;-57
2023/11/23 18:25:28;;;;;;;0.38;0.03;;;3.20;81.30;;;;;;25473271;23;20009;-54
2023/11/23 18:35:29;;;;;;;0.00;0.00;;;3.20;80.90;;;;;;25472758;23;20377;-51
2023/11/23 18:45:32;;;;;;;0.22;0.10;;;3.60;80.30;;;;;;25472908;23;20013;-59
2023/11/23 18:55:35;;;;;;;0.40;0.10;;;3.30;81.60;;;;;;25472559;23;20005;-51
2023/11/23 19:05:37;;;;;;;0.30;0.10;;;3.20;83.30;;;;;;25472121;23;20005;-47
2023/11/23 19:15:40;;;;;;;0.22;0.00;;;3.40;83.10;;;;;;25470216;23;20001;-48
2023/11/23 19:25:42;;;;;;;1.63;0.10;;;3.50;84.30;;;;;;25445503;23;20060;-52
2023/11/23 19:35:44;;;;;;;0.30;0.00;;;3.60;83.10;;;;;;25471290;23;20010;-59
2023/11/23 19:45:46;;;;;;;0.17;0.05;;;3.70;86.20;;;;;;25471260;23;20018;-50
2023/11/23 19:55:50;;;;;;;0.35;0.03;;;3.80;85.80;;;;;;25420556;23;20128;-59
2023/11/23 20:05:52;;;;;;;0.00;0.00;;;3.50;85.90;;;;;;25468984;23;20008;-48
2023/11/23 20:15:54;;;;;;;0.10;0.00;;;3.40;86.60;;;;;;25468715;23;20013;-57
2023/11/23 20:26:05;;;;;;;0.57;0.10;;;3.40;86.80;;;;;;25446519;23;20082;-51
2023/11/23 20:36:08;;;;;;;0.35;0.00;;;3.50;87.20;;;;;;25477810;23;20006;-51
2023/11/23 20:46:13;;;;;;;0.60;0.00;;;3.00;88.30;;;;;;25477351;23;20020;-53
2023/11/23 20:56:16;;;;;;;0.30;0.10;;;3.00;86.60;;;;;;25426862;23;20076;-53
2023/11/23 21:06:22;;;;;;;0.10;0.00;;;2.90;86.40;;;;;;25450799;23;20001;-57
2023/11/23 21:16:26;;;;;;;0.60;0.00;;;2.90;90.10;;;;;;25515471;23;20001;-59
2023/11/23 21:26:28;;;;;;;0.15;0.00;;;2.80;89.40;;;;;;25449980;23;20010;-59
2023/11/23 21:36:30;;;;;;;0.20;0.00;;;3.10;89.70;;;;;;25475648;23;20037;-48
2023/11/23 21:46:32;;;;;;;0.13;0.10;;;3.50;90.00;;;;;;25474755;23;20333;-55
2023/11/23 21:56:34;;;;;;;0.55;0.10;;;3.70;88.90;;;;;;25473475;23;20006;-59
2023/11/23 22:06:36;;;;;;;0.00;0.00;;;3.90;89.50;;;;;;25473586;23;20386;-48
2023/11/23 22:16:40;;;;;;;0.22;0.00;;;3.50;90.10;;;;;;25462817;23;20005;-46
2023/11/23 22:26:44;;;;;;;0.30;0.00;;;3.40;89.20;;;;;;25439152;23;20013;-56
2023/11/23 22:36:47;;;;;;;0.15;0.00;;;3.30;89.80;;;;;;25437369;23;20473;-58
2023/11/23 22:46:49;;;;;;;0.00;0.00;;;3.30;88.80;;;;;;25421410;23;20029;-59
2023/11/23 22:56:53;;;;;;;0.30;0.00;;;3.30;88.30;;;;;;25473069;23;20005;-58
2023/11/23 23:06:55;;;;;;;0.57;0.00;;;3.60;87.50;;;;;;25471146;23;20060;-49
2023/11/23 23:16:57;;;;;;;0.43;0.00;;;3.80;86.50;;;;;;25472435;23;20002;-49
2023/11/23 23:26:59;;;;;;;0.00;0.00;;;3.60;87.20;;;;;;25470255;23;20013;-59
2023/11/23 23:37:01;;;;;;;0.40;0.00;;;3.70;86.60;;;;;;25469657;23;20005;-51
2023/11/23 23:47:07;;;;;;;0.10;0.00;;;3.90;85.90;;;;;;25471554;23;20010;-59
2023/11/23 23:57:09;;;;;;;1.58;0.00;;;4.10;86.30;;;;;;25511184;23;20010;-48
